sensor_id;sensor_type;location;lat;lon;timestamp;pressure;altitude;pressure_sealevel;temperature;humidity
72395;BME280;60384;48.152;11.614;2024-02-21T00:01:48;96587.34;;;8.14;56.06
72395;BME280;60384;48.152;11.614;2024-02-21T00:04:50;96585.25;;;8.18;55.95
72395;BME280;60384;48.152;11.614;2024-02-21T00:07:53;96581.91;;;8.16;55.98
72395;BME280;60384;48.152;11.614;2024-02-21T00:10:55;96596.28;;;8.13;56.16
72395;BME280;60384;48.152;11.614;2024-02-21T00:13:56;96585.97;;;8.10;55.98
72395;BME280;60384;48.152;11.614;2024-02-21T00:16:58;96585.44;;;8.07;55.91
72395;BME280;60384;48.152;11.614;2024-02-21T00:19:59;96478.13;;;7.48;56.03
72395;BME280;60384;48.152;11.614;2024-02-21T00:23:03;96579.00;;;8.09;56.09
72395;BME280;60384;48.152;11.614;2024-02-21T00:26:04;96563.38;;;8.06;56.13
72395;BME280;60384;48.152;11.614;2024-02-21T00:29:06;96574.00;;;8.06;56.11
72395;BME280;60384;48.152;11.614;2024-02-21T00:32:08;96567.06;;;8.05;56.01
72395;BME280;60384;48.152;11.614;2024-02-21T00:35:09;96566.38;;;8.03;55.97
72395;BME280;60384;48.152;11.614;2024-02-21T00:38:12;96563.03;;;8.01;56.19
72395;BME280;60384;48.152;11.614;2024-02-21T00:41:14;96562.34;;;7.99;56.21
72395;BME280;60384;48.152;11.614;2024-02-21T00:44:15;96547.56;;;7.96;56.21
72395;BME280;60384;48.152;11.614;2024-02-21T00:47:17;96547.69;;;7.95;56.15
72395;BME280;60384;48.152;11.614;2024-02-21T00:50:19;96543.53;;;7.92;56.39
72395;BME280;60384;48.152;11.614;2024-02-21T00:53:25;96540.72;;;7.94;56.30
72395;BME280;60384;48.152;11.614;2024-02-21T00:56:26;96544.06;;;7.96;56.15
72395;BME280;60384;48.152;11.614;2024-02-21T00:59:28;96544.75;;;7.98;56.37
72395;BME280;60384;48.152;11.614;2024-02-21T01:02:29;96549.22;;;7.97;56.33
72395;BME280;60384;48.152;11.614;2024-02-21T01:05:32;96548.38;;;7.97;56.45
72395;BME280;60384;48.152;11.614;2024-02-21T01:08:35;96548.00;;;7.92;56.32
72395;BME280;60384;48.152;11.614;2024-02-21T01:11:37;96535.34;;;7.86;56.39
72395;BME280;60384;48.152;11.614;2024-02-21T05:27:56;96291.75;;;7.39;56.20
72395;BME280;60384;48.152;11.614;2024-02-21T05:31:02;96287.13;;;7.41;56.12
72395;BME280;60384;48.152;11.614;2024-02-21T05:34:04;96287.44;;;7.38;56.04
72395;BME280;60384;48.152;11.614;2024-02-21T05:37:05;96286.75;;;7.36;56.18
72395;BME280;60384;48.152;11.614;2024-02-21T05:40:07;96284.94;;;7.37;56.06
72395;BME280;60384;48.152;11.614;2024-02-21T05:43:11;96279.78;;;7.35;56.15
72395;BME280;60384;48.152;11.614;2024-02-21T05:46:13;96277.13;;;7.35;56.26
72395;BME280;60384;48.152;11.614;2024-02-21T05:49:15;96277.97;;;7.36;56.34
72395;BME280;60384;48.152;11.614;2024-02-21T05:52:17;96273.81;;;7.33;56.22
72395;BME280;60384;48.152;11.614;2024-02-21T05:55:18;96265.06;;;7.32;56.12
72395;BME280;60384;48.152;11.614;2024-02-21T05:58:21;96262.41;;;7.32;56.05
72395;BME280;60384;48.152;11.614;2024-02-21T06:01:25;96254.91;;;7.28;56.15
72395;BME280;60384;48.152;11.614;2024-02-21T06:04:28;96246.97;;;7.28;56.20
72395;BME280;60384;48.152;11.614;2024-02-21T06:07:29;96247.41;;;7.23;56.39
72395;BME280;60384;48.152;11.614;2024-02-21T06:10:31;96252.84;;;7.22;56.12
72395;BME280;60384;48.152;11.614;2024-02-21T06:13:37;96252.72;;;7.23;56.20
72395;BME280;60384;48.152;11.614;2024-02-21T06:16:43;96250.34;;;7.20;56.26
72395;BME280;60384;48.152;11.614;2024-02-21T06:19:44;96251.50;;;7.18;56.13
72395;BME280;60384;48.152;11.614;2024-02-21T06:22:46;96255.13;;;7.17;56.36
72395;BME280;60384;48.152;11.614;2024-02-21T06:25:48;96246.19;;;7.18;56.20
72395;BME280;60384;48.152;11.614;2024-02-21T06:28:51;96244.09;;;7.21;56.22
72395;BME280;60384;48.152;11.614;2024-02-21T06:31:52;96237.25;;;7.19;56.22
72395;BME280;60384;48.152;11.614;2024-02-21T06:34:54;96232.13;;;7.17;56.28
72395;BME280;60384;48.152;11.614;2024-02-21T06:37:56;96236.44;;;7.18;55.95
72395;BME280;60384;48.152;11.614;2024-02-21T06:41:00;96240.75;;;7.19;56.11
72395;BME280;60384;48.152;11.614;2024-02-21T06:44:06;96241.59;;;7.20;56.00
72395;BME280;60384;48.152;11.614;2024-02-21T06:47:08;96242.13;;;7.23;56.02
72395;BME280;60384;48.152;11.614;2024-02-21T06:50:10;96249.75;;;7.26;56.03
72395;BME280;60384;48.152;11.614;2024-02-21T06:53:12;96252.41;;;7.26;56.07
72395;BME280;60384;48.152;11.614;2024-02-21T06:56:14;96251.28;;;7.29;56.05
72395;BME280;60384;48.152;11.614;2024-02-21T06:59:17;96245.00;;;7.30;55.74
72395;BME280;60384;48.152;11.614;2024-02-21T07:02:19;96242.50;;;7.28;55.56
72395;BME280;60384;48.152;11.614;2024-02-21T07:05:21;96249.31;;;7.31;55.71
72395;BME280;60384;48.152;11.614;2024-02-21T07:08:23;96232.09;;;7.35;55.61
72395;BME280;60384;48.152;11.614;2024-02-21T07:11:25;96227.31;;;7.39;55.76
72395;BME280;60384;48.152;11.614;2024-02-21T07:14:29;96232.31;;;7.42;55.43
72395;BME280;60384;48.152;11.614;2024-02-21T07:17:31;96235.50;;;7.45;55.82
72395;BME280;60384;48.152;11.614;2024-02-21T07:20:32;96231.41;;;7.51;55.62
72395;BME280;60384;48.152;11.614;2024-02-21T07:23:37;96227.44;;;7.55;55.66
72395;BME280;60384;48.152;11.614;2024-02-21T07:26:44;96217.50;;;7.57;55.46
72395;BME280;60384;48.152;11.614;2024-02-21T07:29:48;96224.31;;;7.59;55.01
72395;BME280;60384;48.152;11.614;2024-02-21T07:32:50;96227.50;;;7.63;55.19
72395;BME280;60384;48.152;11.614;2024-02-21T07:35:57;96225.06;;;7.70;55.16
72395;BME280;60384;48.152;11.614;2024-02-21T07:38:59;96224.44;;;7.76;55.19
72395;BME280;60384;48.152;11.614;2024-02-21T07:42:01;96219.34;;;7.82;55.11
72395;BME280;60384;48.152;11.614;2024-02-21T07:45:04;96216.53;;;7.84;55.10
72395;BME280;60384;48.152;11.614;2024-02-21T07:48:07;96217.22;;;7.86;55.05
72395;BME280;60384;48.152;11.614;2024-02-21T07:51:09;96206.94;;;7.91;55.11
72395;BME280;60384;48.152;11.614;2024-02-21T07:54:12;96205.78;;;7.93;54.96
72395;BME280;60384;48.152;11.614;2024-02-21T07:57:14;96198.69;;;7.94;54.97
72395;BME280;60384;48.152;11.614;2024-02-21T08:00:18;96192.53;;;7.93;55.06
72395;BME280;60384;48.152;11.614;2024-02-21T08:03:21;96190.41;;;7.97;54.96
72395;BME280;60384;48.152;11.614;2024-02-21T08:06:23;96184.13;;;7.98;54.98
72395;BME280;60384;48.152;11.614;2024-02-21T08:09:25;96165.41;;;7.99;54.89
72395;BME280;60384;48.152;11.614;2024-02-21T08:12:27;96150.84;;;8.04;54.87
72395;BME280;60384;48.152;11.614;2024-02-21T08:15:30;96142.53;;;8.07;54.84
72395;BME280;60384;48.152;11.614;2024-02-21T08:18:32;96142.38;;;8.08;55.05
72395;BME280;60384;48.152;11.614;2024-02-21T08:21:36;96129.47;;;8.13;54.94
72395;BME280;60384;48.152;11.614;2024-02-21T08:24:38;96133.63;;;8.16;55.06
72395;BME280;60384;48.152;11.614;2024-02-21T08:27:40;96142.59;;;8.23;54.86
72395;BME280;60384;48.152;11.614;2024-02-21T08:30:43;96133.81;;;8.30;54.70
72395;BME280;60384;48.152;11.614;2024-02-21T08:33:48;96134.88;;;8.38;54.66
72395;BME280;60384;48.152;11.614;2024-02-21T08:36:50;96129.56;;;8.46;54.47
72395;BME280;60384;48.152;11.614;2024-02-21T08:39:51;96136.72;;;8.53;54.59
72395;BME280;60384;48.152;11.614;2024-02-21T08:42:53;96136.56;;;8.63;54.37
72395;BME280;60384;48.152;11.614;2024-02-21T08:45:56;96154.31;;;8.70;54.04
72395;BME280;60384;48.152;11.614;2024-02-21T08:48:58;96148.00;;;8.80;54.08
72395;BME280;60384;48.152;11.614;2024-02-21T08:52:00;96145.06;;;8.91;54.21
72395;BME280;60384;48.152;11.614;2024-02-21T08:55:01;96143.22;;;8.99;53.70
72395;BME280;60384;48.152;11.614;2024-02-21T08:58:03;96137.91;;;9.08;53.95
72395;BME280;60384;48.152;11.614;2024-02-21T09:01:07;96135.06;;;9.17;53.93
72395;BME280;60384;48.152;11.614;2024-02-21T09:04:10;96137.22;;;9.30;53.75
72395;BME280;60384;48.152;11.614;2024-02-21T09:07:12;96131.38;;;9.43;53.68
72395;BME280;60384;48.152;11.614;2024-02-21T09:10:14;96129.84;;;9.56;53.86
72395;BME280;60384;48.152;11.614;2024-02-21T09:13:15;96130.66;;;9.65;53.64
72395;BME280;60384;48.152;11.614;2024-02-21T09:16:18;96134.44;;;9.70;53.60
72395;BME280;60384;48.152;11.614;2024-02-21T09:19:20;96125.81;;;9.77;53.65
72395;BME280;60384;48.152;11.614;2024-02-21T09:22:26;96142.75;;;9.84;53.75
72395;BME280;60384;48.152;11.614;2024-02-21T09:25:28;96134.06;;;9.90;53.74
72395;BME280;60384;48.152;11.614;2024-02-21T09:28:30;96137.88;;;9.95;53.51
72395;BME280;60384;48.152;11.614;2024-02-21T09:31:36;96138.47;;;10.05;53.46
72395;BME280;60384;48.152;11.614;2024-02-21T09:34:39;96136.63;;;10.14;53.48
72395;BME280;60384;48.152;11.614;2024-02-21T09:37:40;96140.25;;;10.21;53.40
72395;BME280;60384;48.152;11.614;2024-02-21T09:40:45;96134.41;;;10.26;53.43
72395;BME280;60384;48.152;11.614;2024-02-21T09:43:47;96129.25;;;10.24;53.47
72395;BME280;60384;48.152;11.614;2024-02-21T09:46:55;96125.09;;;10.30;53.33
72395;BME280;60384;48.152;11.614;2024-02-21T09:49:59;96122.19;;;10.39;53.28
72395;BME280;60384;48.152;11.614;2024-02-21T09:53:02;96120.47;;;10.55;53.11
72395;BME280;60384;48.152;11.614;2024-02-21T09:56:04;96113.06;;;10.65;52.85
72395;BME280;60384;48.152;11.614;2024-02-21T09:59:06;96109.44;;;10.81;52.75
72395;BME280;60384;48.152;11.614;2024-02-21T10:02:10;96109.47;;;10.95;52.74
72395;BME280;60384;48.152;11.614;2024-02-21T10:05:14;96107.31;;;11.13;52.62
72395;BME280;60384;48.152;11.614;2024-02-21T10:08:16;96106.31;;;11.29;52.16
72395;BME280;60384;48.152;11.614;2024-02-21T10:11:21;96101.22;;;11.42;52.16
72395;BME280;60384;48.152;11.614;2024-02-21T10:14:23;96094.78;;;11.52;52.01
72395;BME280;60384;48.152;11.614;2024-02-21T10:17:26;96090.66;;;11.64;52.11
72395;BME280;60384;48.152;11.614;2024-02-21T10:20:28;96084.53;;;11.78;51.88
72395;BME280;60384;48.152;11.614;2024-02-21T10:23:40;96090.03;;;11.91;51.75
72395;BME280;60384;48.152;11.614;2024-02-21T10:26:42;96086.44;;;11.99;51.64
72395;BME280;60384;48.152;11.614;2024-02-21T10:29:48;96098.94;;;11.98;51.74
72395;BME280;60384;48.152;11.614;2024-02-21T10:32:51;96081.16;;;12.05;51.80
72395;BME280;60384;48.152;11.614;2024-02-21T10:35:54;96078.63;;;12.18;51.35
72395;BME280;60384;48.152;11.614;2024-02-21T10:38:56;96064.44;;;12.33;51.28
72395;BME280;60384;48.152;11.614;2024-02-21T10:41:59;96052.69;;;12.48;51.20
72395;BME280;60384;48.152;11.614;2024-02-21T10:45:01;96049.94;;;12.63;51.12
72395;BME280;60384;48.152;11.614;2024-02-21T10:48:08;96042.03;;;12.76;50.51
72395;BME280;60384;48.152;11.614;2024-02-21T10:51:14;96027.56;;;12.92;50.54
72395;BME280;60384;48.152;11.614;2024-02-21T10:54:21;96025.22;;;13.04;50.47
72395;BME280;60384;48.152;11.614;2024-02-21T10:57:24;96014.84;;;13.15;49.95
72395;BME280;60384;48.152;11.614;2024-02-21T11:00:27;96012.25;;;13.29;49.97
72395;BME280;60384;48.152;11.614;2024-02-21T11:03:32;96007.59;;;13.44;49.50
72395;BME280;60384;48.152;11.614;2024-02-21T11:06:34;95991.00;;;13.55;49.41
72395;BME280;60384;48.152;11.614;2024-02-21T11:09:36;95990.00;;;13.63;49.36
72395;BME280;60384;48.152;11.614;2024-02-21T11:12:38;95975.03;;;13.75;49.21
72395;BME280;60384;48.152;11.614;2024-02-21T11:15:40;95977.56;;;13.89;49.14
72395;BME280;60384;48.152;11.614;2024-02-21T11:18:43;95981.09;;;14.03;48.99
72395;BME280;60384;48.152;11.614;2024-02-21T11:21:44;95956.63;;;14.19;48.92
72395;BME280;60384;48.152;11.614;2024-02-21T11:24:48;95951.28;;;14.39;48.61
72395;BME280;60384;48.152;11.614;2024-02-21T11:27:49;95948.44;;;14.54;48.07
72395;BME280;60384;48.152;11.614;2024-02-21T11:30:53;95935.28;;;14.66;47.87
72395;BME280;60384;48.152;11.614;2024-02-21T11:33:56;95848.88;;;14.24;47.83
72395;BME280;60384;48.152;11.614;2024-02-21T11:37:01;95928.00;;;14.92;47.82
72395;BME280;60384;48.152;11.614;2024-02-21T11:40:03;95916.63;;;15.10;47.87
72395;BME280;60384;48.152;11.614;2024-02-21T11:43:07;95911.66;;;15.20;47.80
72395;BME280;60384;48.152;11.614;2024-02-21T11:46:08;95908.13;;;15.26;47.61
72395;BME280;60384;48.152;11.614;2024-02-21T11:49:11;95897.38;;;15.26;48.01
72395;BME280;60384;48.152;11.614;2024-02-21T11:52:13;95901.09;;;15.25;48.04
72395;BME280;60384;48.152;11.614;2024-02-21T11:55:15;95893.25;;;15.31;47.75
72395;BME280;60384;48.152;11.614;2024-02-21T11:58:17;95886.66;;;15.33;47.96
72395;BME280;60384;48.152;11.614;2024-02-21T12:01:19;95882.50;;;15.37;47.98
72395;BME280;60384;48.152;11.614;2024-02-21T12:04:22;95866.78;;;15.41;47.73
72395;BME280;60384;48.152;11.614;2024-02-21T12:07:24;95857.28;;;15.45;47.73
72395;BME280;60384;48.152;11.614;2024-02-21T12:10:28;95845.09;;;15.42;47.14
72395;BME280;60384;48.152;11.614;2024-02-21T12:13:31;95848.19;;;15.46;47.25
72395;BME280;60384;48.152;11.614;2024-02-21T12:16:32;95840.75;;;15.48;46.80
72395;BME280;60384;48.152;11.614;2024-02-21T12:19:35;95842.56;;;15.60;46.67
72395;BME280;60384;48.152;11.614;2024-02-21T12:22:37;95835.50;;;15.73;46.09
72395;BME280;60384;48.152;11.614;2024-02-21T12:25:39;95836.44;;;15.85;46.15
72395;BME280;60384;48.152;11.614;2024-02-21T12:28:41;95827.09;;;15.94;45.78
72395;BME280;60384;48.152;11.614;2024-02-21T12:31:42;95824.31;;;16.07;46.00
72395;BME280;60384;48.152;11.614;2024-02-21T12:34:45;95811.34;;;16.29;46.05
72395;BME280;60384;48.152;11.614;2024-02-21T12:37:47;95798.28;;;16.51;45.65
72395;BME280;60384;48.152;11.614;2024-02-21T12:40:49;95799.38;;;16.68;45.87
72395;BME280;60384;48.152;11.614;2024-02-21T12:43:51;95792.25;;;16.80;45.65
72395;BME280;60384;48.152;11.614;2024-02-21T12:46:52;95782.38;;;16.92;45.23
72395;BME280;60384;48.152;11.614;2024-02-21T12:49:55;95777.53;;;17.01;44.86
72395;BME280;60384;48.152;11.614;2024-02-21T12:52:57;95778.34;;;17.02;44.72
72395;BME280;60384;48.152;11.614;2024-02-21T12:55:59;95765.34;;;16.98;44.21
72395;BME280;60384;48.152;11.614;2024-02-21T12:59:01;95761.00;;;16.97;44.59
72395;BME280;60384;48.152;11.614;2024-02-21T13:02:03;95760.91;;;16.86;45.06
72395;BME280;60384;48.152;11.614;2024-02-21T13:05:06;95754.06;;;16.90;45.37
72395;BME280;60384;48.152;11.614;2024-02-21T13:08:08;95741.34;;;16.97;45.03
72395;BME280;60384;48.152;11.614;2024-02-21T13:11:10;95737.75;;;17.03;45.51
72395;BME280;60384;48.152;11.614;2024-02-21T13:14:12;95722.66;;;17.02;44.92
72395;BME280;60384;48.152;11.614;2024-02-21T13:17:14;95716.91;;;16.98;44.54
72395;BME280;60384;48.152;11.614;2024-02-21T13:20:18;95710.94;;;16.96;44.47
72395;BME280;60384;48.152;11.614;2024-02-21T13:23:20;95712.00;;;16.95;45.07
72395;BME280;60384;48.152;11.614;2024-02-21T13:26:22;95709.06;;;16.97;45.02
72395;BME280;60384;48.152;11.614;2024-02-21T13:29:24;95711.84;;;16.90;44.87
72395;BME280;60384;48.152;11.614;2024-02-21T13:32:26;95698.13;;;16.80;45.08
72395;BME280;60384;48.152;11.614;2024-02-21T13:35:29;95694.44;;;16.75;45.22
72395;BME280;60384;48.152;11.614;2024-02-21T13:38:30;95688.53;;;16.66;45.42
72395;BME280;60384;48.152;11.614;2024-02-21T13:41:32;95676.75;;;16.67;45.10
72395;BME280;60384;48.152;11.614;2024-02-21T13:44:34;95680.78;;;16.76;45.37
72395;BME280;60384;48.152;11.614;2024-02-21T13:47:37;95677.13;;;16.71;45.39
72395;BME280;60384;48.152;11.614;2024-02-21T13:50:40;95662.47;;;16.66;45.27
72395;BME280;60384;48.152;11.614;2024-02-21T13:53:43;95655.72;;;16.64;45.40
72395;BME280;60384;48.152;11.614;2024-02-21T13:56:45;95660.38;;;16.69;45.36
72395;BME280;60384;48.152;11.614;2024-02-21T13:59:47;95652.53;;;16.67;45.45
72395;BME280;60384;48.152;11.614;2024-02-21T14:02:48;95636.47;;;16.60;45.48
72395;BME280;60384;48.152;11.614;2024-02-21T14:05:51;95634.63;;;16.61;45.50
72395;BME280;60384;48.152;11.614;2024-02-21T14:08:53;95628.34;;;16.67;45.22
72395;BME280;60384;48.152;11.614;2024-02-21T14:11:55;95628.88;;;16.76;45.56
72395;BME280;60384;48.152;11.614;2024-02-21T14:14:57;95623.19;;;16.84;44.91
72395;BME280;60384;48.152;11.614;2024-02-21T14:17:58;95615.34;;;16.82;44.73
72395;BME280;60384;48.152;11.614;2024-02-21T14:21:01;95618.09;;;16.76;44.70
72395;BME280;60384;48.152;11.614;2024-02-21T14:24:03;95615.28;;;16.71;45.07
72395;BME280;60384;48.152;11.614;2024-02-21T14:27:05;95616.53;;;16.68;45.17
72395;BME280;60384;48.152;11.614;2024-02-21T14:30:07;95611.16;;;16.68;44.87
72395;BME280;60384;48.152;11.614;2024-02-21T14:33:11;95600.78;;;16.72;44.82
72395;BME280;60384;48.152;11.614;2024-02-21T14:36:14;95592.94;;;16.70;44.97
72395;BME280;60384;48.152;11.614;2024-02-21T14:39:16;95584.88;;;16.70;45.13
72395;BME280;60384;48.152;11.614;2024-02-21T14:42:18;95583.22;;;16.69;44.84
72395;BME280;60384;48.152;11.614;2024-02-21T14:45:19;95573.41;;;16.63;44.40
72395;BME280;60384;48.152;11.614;2024-02-21T14:48:23;95576.09;;;16.63;44.56
72395;BME280;60384;48.152;11.614;2024-02-21T14:51:27;95574.66;;;16.60;44.61
72395;BME280;60384;48.152;11.614;2024-02-21T14:54:29;95571.81;;;16.55;44.64
72395;BME280;60384;48.152;11.614;2024-02-21T14:57:31;95566.88;;;16.52;44.73
72395;BME280;60384;48.152;11.614;2024-02-21T15:00:32;95568.75;;;16.52;44.91
72395;BME280;60384;48.152;11.614;2024-02-21T15:03:34;95562.78;;;16.50;44.96
72395;BME280;60384;48.152;11.614;2024-02-21T15:06:37;95560.56;;;16.47;45.00
72395;BME280;60384;48.152;11.614;2024-02-21T15:09:39;95564.97;;;16.41;44.90
72395;BME280;60384;48.152;11.614;2024-02-21T15:12:44;95570.19;;;16.36;44.87
72395;BME280;60384;48.152;11.614;2024-02-21T15:15:46;95569.81;;;16.32;45.39
72395;BME280;60384;48.152;11.614;2024-02-21T15:18:48;95558.38;;;16.25;45.15
72395;BME280;60384;48.152;11.614;2024-02-21T15:21:51;95569.78;;;16.21;45.54
72395;BME280;60384;48.152;11.614;2024-02-21T15:24:53;95572.31;;;16.16;45.08
72395;BME280;60384;48.152;11.614;2024-02-21T15:27:55;95563.31;;;16.10;45.43
72395;BME280;60384;48.152;11.614;2024-02-21T15:30:56;95560.09;;;16.02;45.37
72395;BME280;60384;48.152;11.614;2024-02-21T15:33:58;95557.47;;;15.95;45.45
72395;BME280;60384;48.152;11.614;2024-02-21T15:37:01;95553.84;;;15.89;45.13
72395;BME280;60384;48.152;11.614;2024-02-21T15:40:05;95547.47;;;15.84;45.64
72395;BME280;60384;48.152;11.614;2024-02-21T15:43:08;95550.59;;;15.81;45.49
72395;BME280;60384;48.152;11.614;2024-02-21T15:46:11;95552.34;;;15.75;45.57
72395;BME280;60384;48.152;11.614;2024-02-21T15:49:12;95546.59;;;15.72;45.63
72395;BME280;60384;48.152;11.614;2024-02-21T15:52:15;95545.38;;;15.68;45.67
72395;BME280;60384;48.152;11.614;2024-02-21T15:55:17;95545.81;;;15.65;45.73
72395;BME280;60384;48.152;11.614;2024-02-21T15:58:20;95540.28;;;15.59;45.69
72395;BME280;60384;48.152;11.614;2024-02-21T16:01:22;95537.66;;;15.53;45.87
72395;BME280;60384;48.152;11.614;2024-02-21T16:04:24;95538.94;;;15.50;45.81
72395;BME280;60384;48.152;11.614;2024-02-21T16:07:27;95529.69;;;15.46;45.71
72395;BME280;60384;48.152;11.614;2024-02-21T16:10:29;95529.50;;;15.41;45.95
72395;BME280;60384;48.152;11.614;2024-02-21T16:13:31;95528.34;;;15.37;45.70
72395;BME280;60384;48.152;11.614;2024-02-21T16:16:33;95518.69;;;15.29;45.91
72395;BME280;60384;48.152;11.614;2024-02-21T16:19:35;95516.06;;;15.23;46.10
72395;BME280;60384;48.152;11.614;2024-02-21T16:22:39;95519.66;;;15.17;46.02
72395;BME280;60384;48.152;11.614;2024-02-21T16:25:41;95513.28;;;15.11;46.24
72395;BME280;60384;48.152;11.614;2024-02-21T16:28:44;95515.59;;;15.08;46.14
72395;BME280;60384;48.152;11.614;2024-02-21T16:31:45;95506.34;;;15.04;46.25
72395;BME280;60384;48.152;11.614;2024-02-21T16:34:47;95511.56;;;14.99;46.33
72395;BME280;60384;48.152;11.614;2024-02-21T16:37:50;95507.66;;;14.94;46.47
72395;BME280;60384;48.152;11.614;2024-02-21T16:40:52;95499.44;;;14.89;46.49
72395;BME280;60384;48.152;11.614;2024-02-21T16:43:54;95509.19;;;14.84;46.53
72395;BME280;60384;48.152;11.614;2024-02-21T16:46:55;95502.84;;;14.78;46.33
72395;BME280;60384;48.152;11.614;2024-02-21T16:49:57;95497.53;;;14.72;46.45
72395;BME280;60384;48.152;11.614;2024-02-21T16:53:00;95496.56;;;14.66;46.66
72395;BME280;60384;48.152;11.614;2024-02-21T16:56:04;95496.97;;;14.63;46.58
72395;BME280;60384;48.152;11.614;2024-02-21T16:59:05;95501.34;;;14.57;46.47
72395;BME280;60384;48.152;11.614;2024-02-21T17:02:08;95496.63;;;14.53;46.55
72395;BME280;60384;48.152;11.614;2024-02-21T17:05:09;95489.69;;;14.45;46.56
72395;BME280;60384;48.152;11.614;2024-02-21T17:08:15;95494.84;;;14.40;46.65
72395;BME280;60384;48.152;11.614;2024-02-21T17:11:17;95484.75;;;14.36;46.65
72395;BME280;60384;48.152;11.614;2024-02-21T17:14:19;95485.63;;;14.30;46.79
72395;BME280;60384;48.152;11.614;2024-02-21T17:17:22;95484.19;;;14.27;46.73
72395;BME280;60384;48.152;11.614;2024-02-21T17:20:24;95480.53;;;14.21;46.79
72395;BME280;60384;48.152;11.614;2024-02-21T17:23:27;95475.81;;;14.17;46.90
72395;BME280;60384;48.152;11.614;2024-02-21T17:26:28;95465.97;;;14.11;46.84
72395;BME280;60384;48.152;11.614;2024-02-21T17:29:30;95470.31;;;14.05;47.00
72395;BME280;60384;48.152;11.614;2024-02-21T17:32:32;95460.66;;;13.98;47.08
72395;BME280;60384;48.152;11.614;2024-02-21T17:35:34;95460.94;;;13.89;47.08
72395;BME280;60384;48.152;11.614;2024-02-21T17:38:38;95462.59;;;13.84;47.16
72395;BME280;60384;48.152;11.614;2024-02-21T17:41:39;95458.94;;;13.78;47.06
72395;BME280;60384;48.152;11.614;2024-02-21T17:44:41;95457.09;;;13.72;47.33
72395;BME280;60384;48.152;11.614;2024-02-21T17:47:45;95451.56;;;13.67;47.39
72395;BME280;60384;48.152;11.614;2024-02-21T17:50:48;95452.19;;;13.63;47.37
72395;BME280;60384;48.152;11.614;2024-02-21T17:53:52;95447.50;;;13.58;47.54
72395;BME280;60384;48.152;11.614;2024-02-21T17:56:53;95441.34;;;13.51;47.42
72395;BME280;60384;48.152;11.614;2024-02-21T17:59:55;95436.00;;;13.44;47.36
72395;BME280;60384;48.152;11.614;2024-02-21T18:02:57;95435.00;;;13.39;47.47
72395;BME280;60384;48.152;11.614;2024-02-21T18:05:58;95430.28;;;13.34;47.49
72395;BME280;60384;48.152;11.614;2024-02-21T18:09:02;95420.41;;;13.28;47.47
72395;BME280;60384;48.152;11.614;2024-02-21T18:12:04;95421.28;;;13.22;47.49
72395;BME280;60384;48.152;11.614;2024-02-21T18:15:08;95413.06;;;13.17;47.72
72395;BME280;60384;48.152;11.614;2024-02-21T18:18:11;95407.47;;;13.12;47.73
72395;BME280;60384;48.152;11.614;2024-02-21T18:21:13;95407.31;;;13.07;48.08
72395;BME280;60384;48.152;11.614;2024-02-21T18:24:16;95406.91;;;13.03;47.70
72395;BME280;60384;48.152;11.614;2024-02-21T18:27:17;95395.19;;;12.98;47.82
72395;BME280;60384;48.152;11.614;2024-02-21T18:30:19;95398.47;;;12.93;47.91
72395;BME280;60384;48.152;11.614;2024-02-21T18:33:21;95397.50;;;12.88;47.78
72395;BME280;60384;48.152;11.614;2024-02-21T18:36:23;95385.56;;;12.83;47.82
72395;BME280;60384;48.152;11.614;2024-02-21T18:39:29;95378.78;;;12.81;47.77
72395;BME280;60384;48.152;11.614;2024-02-21T18:42:31;95379.81;;;12.80;47.85
72395;BME280;60384;48.152;11.614;2024-02-21T18:45:33;95378.59;;;12.76;47.91
72395;BME280;60384;48.152;11.614;2024-02-21T18:48:34;95375.28;;;12.74;47.88
72395;BME280;60384;48.152;11.614;2024-02-21T18:51:36;95366.28;;;12.68;47.92
72395;BME280;60384;48.152;11.614;2024-02-21T18:54:50;95356.63;;;12.67;48.07
72395;BME280;60384;48.152;11.614;2024-02-21T18:57:55;95360.53;;;12.65;48.19
72395;BME280;60384;48.152;11.614;2024-02-21T19:01:04;95350.47;;;12.60;47.96
72395;BME280;60384;48.152;11.614;2024-02-21T19:04:33;95360.75;;;12.57;48.17
72395;BME280;60384;48.152;11.614;2024-02-21T19:07:35;95352.09;;;12.55;48.05
72395;BME280;60384;48.152;11.614;2024-02-21T19:10:40;95348.22;;;12.50;48.06
72395;BME280;60384;48.152;11.614;2024-02-21T19:13:41;95344.75;;;12.50;48.17
72395;BME280;60384;48.152;11.614;2024-02-21T19:16:44;95335.09;;;12.49;48.23
72395;BME280;60384;48.152;11.614;2024-02-21T19:19:46;95340.84;;;12.46;48.01
72395;BME280;60384;48.152;11.614;2024-02-21T19:22:50;95327.69;;;12.44;48.18
72395;BME280;60384;48.152;11.614;2024-02-21T19:25:53;95329.75;;;12.42;48.30
72395;BME280;60384;48.152;11.614;2024-02-21T19:28:55;95328.50;;;12.38;48.24
72395;BME280;60384;48.152;11.614;2024-02-21T19:31:59;95329.78;;;12.36;48.29
72395;BME280;60384;48.152;11.614;2024-02-21T19:35:01;95326.69;;;12.32;48.32
72395;BME280;60384;48.152;11.614;2024-02-21T19:38:03;95322.38;;;12.31;48.34
72395;BME280;60384;48.152;11.614;2024-02-21T19:41:06;95324.84;;;12.26;48.29
72395;BME280;60384;48.152;11.614;2024-02-21T19:44:08;95321.75;;;12.23;48.41
72395;BME280;60384;48.152;11.614;2024-02-21T19:47:10;95316.81;;;12.20;48.35
72395;BME280;60384;48.152;11.614;2024-02-21T19:50:13;95321.56;;;12.18;48.48
72395;BME280;60384;48.152;11.614;2024-02-21T19:53:23;95313.16;;;12.14;48.47
72395;BME280;60384;48.152;11.614;2024-02-21T19:56:35;95304.31;;;12.13;48.61
72395;BME280;60384;48.152;11.614;2024-02-21T20:06:55;95294.88;;;12.04;48.57
72395;BME280;60384;48.152;11.614;2024-02-21T20:09:59;95289.94;;;12.01;48.51
72395;BME280;60384;48.152;11.614;2024-02-21T20:23:59;95281.56;;;11.98;48.60
72395;BME280;60384;48.152;11.614;2024-02-21T20:27:03;95275.38;;;11.97;48.55
72395;BME280;60384;48.152;11.614;2024-02-21T20:30:15;95276.22;;;11.98;48.66